Time;durP1;ratioP1;P1;durP2;ratioP2;P2;SDS_P1;SDS_P2;PMS_P1;PMS_P2;Temp;Humidity;BMP_temperature;BMP_pressure;BME280_temperature;BME280_humidity;BME280_pressure;Samples;Min_cycle;Max_cycle;Signal;HPM_P1;HPM_P2
2022/04/09 00:01:05;;;;;;;7.70;2.33;;;5.00;99.90;;;;;;5063735;28;20465;-84
2022/04/09 00:03:30;;;;;;;6.13;2.20;;;5.00;99.90;;;;;;5065289;28;20650;-84
2022/04/09 00:05:56;;;;;;;2.83;2.07;;;5.10;99.90;;;;;;5064205;28;20219;-84
2022/04/09 00:08:21;;;;;;;4.30;1.80;;;5.00;99.90;;;;;;5081966;28;20200;-84
2022/04/09 00:10:47;;;;;;;9.23;1.90;;;5.00;99.90;;;;;;5064310;28;20210;-85
2022/04/09 00:13:13;;;;;;;2.70;1.63;;;5.00;99.90;;;;;;5081703;28;20186;-84
2022/04/09 00:15:39;;;;;;;5.53;2.10;;;5.10;99.90;;;;;;5064529;28;20275;-84
2022/04/09 00:18:05;;;;;;;7.03;2.40;;;5.10;99.90;;;;;;5063795;28;20487;-84
2022/04/09 00:20:30;;;;;;;9.00;2.40;;;5.10;99.90;;;;;;5082745;28;20259;-84
2022/04/09 00:22:56;;;;;;;3.83;2.30;;;5.10;99.90;;;;;;5065338;28;20188;-84
2022/04/09 00:25:23;;;;;;;9.47;2.30;;;5.00;99.90;;;;;;5064774;28;20220;-84
2022/04/09 00:27:50;;;;;;;8.40;2.70;;;5.00;99.90;;;;;;5063898;28;20176;-84
2022/04/09 00:30:15;;;;;;;4.93;2.20;;;5.00;99.90;;;;;;5065014;28;20426;-85
2022/04/09 00:32:41;;;;;;;4.80;1.90;;;5.10;99.90;;;;;;5066562;28;20421;-83
2022/04/09 00:35:07;;;;;;;10.03;2.40;;;5.10;99.90;;;;;;5066632;28;20187;-83
2022/04/09 00:37:45;;;;;;;5.90;2.60;;;5.10;99.90;;;;;;5066023;28;20209;-84
2022/04/09 00:40:18;;;;;;;18.57;2.33;;;5.10;99.90;;;;;;5066124;28;20494;-85
2022/04/09 00:42:44;;;;;;;4.97;2.07;;;5.10;99.90;;;;;;5065023;28;20493;-83
2022/04/09 00:45:10;;;;;;;4.10;2.00;;;5.10;99.90;;;;;;5082987;28;20440;-83
2022/04/09 00:47:36;;;;;;;6.60;2.37;;;5.10;99.90;;;;;;5064985;28;20427;-85
2022/04/09 00:50:03;;;;;;;4.87;2.67;;;5.10;99.90;;;;;;5082423;28;20518;-83
2022/04/09 00:52:35;;;;;;;7.60;3.07;;;5.10;99.90;;;;;;5066059;28;20183;-84
2022/04/09 00:55:04;;;;;;;6.57;2.40;;;5.10;99.90;;;;;;5064930;28;20437;-84
2022/04/09 00:57:34;;;;;;;5.13;2.50;;;5.00;99.90;;;;;;5065141;28;20423;-83
2022/04/09 01:00:09;;;;;;;9.70;2.60;;;5.00;99.90;;;;;;5065524;28;20468;-83
2022/04/09 01:02:39;;;;;;;7.80;2.40;;;4.90;99.90;;;;;;5065773;28;20489;-83
2022/04/09 01:05:06;;;;;;;5.27;2.73;;;4.90;99.90;;;;;;5065103;28;20492;-85
2022/04/09 01:07:33;;;;;;;7.43;1.80;;;4.80;99.90;;;;;;5064829;28;20425;-83
2022/04/09 01:09:59;;;;;;;4.80;2.73;;;4.80;99.90;;;;;;5065277;28;20434;-85
2022/04/09 01:12:25;;;;;;;5.00;2.57;;;4.80;99.90;;;;;;5066013;28;20421;-84
2022/04/09 01:14:51;;;;;;;9.37;2.87;;;4.80;99.90;;;;;;5065347;28;20451;-84
2022/04/09 01:17:17;;;;;;;5.17;2.80;;;4.80;99.90;;;;;;5066201;28;20248;-83
2022/04/09 01:19:42;;;;;;;8.60;2.93;;;4.80;99.90;;;;;;5065370;28;20200;-83
2022/04/09 01:22:08;;;;;;;7.63;2.30;;;4.70;99.90;;;;;;5082871;28;20460;-84
2022/04/09 01:24:33;;;;;;;6.40;2.40;;;4.70;99.90;;;;;;5066005;28;20180;-83
2022/04/09 01:26:59;;;;;;;6.83;2.10;;;4.70;99.90;;;;;;5064547;28;20171;-84
2022/04/09 01:29:25;;;;;;;3.40;1.60;;;4.70;99.90;;;;;;5063649;28;20197;-83
2022/04/09 01:31:51;;;;;;;6.83;3.00;;;4.70;99.90;;;;;;5063972;28;20186;-83
2022/04/09 01:34:16;;;;;;;3.73;2.13;;;4.70;99.90;;;;;;5064809;28;20217;-84
2022/04/09 01:36:42;;;;;;;4.77;2.40;;;4.70;99.90;;;;;;5064280;28;20185;-85
2022/04/09 01:39:07;;;;;;;7.83;1.83;;;4.70;99.90;;;;;;5063581;28;20267;-84
2022/04/09 01:41:33;;;;;;;4.03;1.57;;;4.70;99.90;;;;;;5062637;28;20634;-83
2022/04/09 01:43:59;;;;;;;6.23;1.60;;;4.70;99.90;;;;;;5064397;28;20209;-83
2022/04/09 01:46:24;;;;;;;7.07;2.70;;;4.70;99.90;;;;;;5063699;28;20179;-84
2022/04/09 01:48:50;;;;;;;4.33;2.37;;;4.60;99.90;;;;;;5062481;28;20211;-83
2022/04/09 01:51:15;;;;;;;3.77;1.77;;;4.50;99.90;;;;;;5157858;22;20231;-67
2022/04/09 01:53:41;;;;;;;6.20;2.93;;;4.50;99.90;;;;;;5049615;28;20177;-66
2022/04/09 01:56:07;;;;;;;4.10;2.57;;;4.50;99.90;;;;;;5034712;28;20180;-67
2022/04/09 01:58:32;;;;;;;8.07;1.90;;;4.50;99.90;;;;;;5030072;28;20199;-67
2022/04/09 02:00:59;;;;;;;7.77;1.90;;;4.60;99.90;;;;;;5015532;28;20711;-68
2022/04/09 02:03:26;;;;;;;3.07;1.63;;;4.70;99.90;;;;;;5015471;28;20176;-68
2022/04/09 02:05:51;;;;;;;6.30;2.37;;;4.80;99.90;;;;;;5015445;28;20458;-67
2022/04/09 02:08:18;;;;;;;6.97;2.70;;;4.90;99.90;;;;;;5015353;28;20459;-67
2022/04/09 02:10:43;;;;;;;5.10;2.37;;;5.00;99.90;;;;;;5015449;28;20489;-67
2022/04/09 02:13:13;;;;;;;3.90;1.97;;;5.00;99.90;;;;;;5033180;28;20943;-67
2022/04/09 02:15:39;;;;;;;4.30;2.67;;;5.00;99.90;;;;;;5014901;28;20180;-67
2022/04/09 02:18:05;;;;;;;4.00;1.93;;;4.90;99.90;;;;;;5013805;28;20485;-68
2022/04/09 02:20:33;;;;;;;6.00;2.20;;;4.80;99.90;;;;;;5015217;28;20502;-67
2022/04/09 02:22:59;;;;;;;4.30;2.17;;;4.70;99.90;;;;;;5015286;28;20437;-67
2022/04/09 02:25:24;;;;;;;6.43;1.90;;;4.70;99.90;;;;;;5015149;28;20446;-67
2022/04/09 02:27:50;;;;;;;8.73;2.10;;;4.60;99.90;;;;;;5015029;28;20415;-67
2022/04/09 02:30:16;;;;;;;4.97;2.10;;;4.60;99.90;;;;;;5015387;28;20200;-67
2022/04/09 02:32:48;;;;;;;3.30;1.90;;;4.60;99.90;;;;;;5015211;28;20659;-67
2022/04/09 02:35:15;;;;;;;5.20;2.63;;;4.50;99.90;;;;;;5015127;28;20180;-67
2022/04/09 02:37:41;;;;;;;3.70;2.10;;;4.50;99.90;;;;;;5014678;28;20421;-68
2022/04/09 02:40:07;;;;;;;6.07;2.27;;;4.50;99.90;;;;;;5014644;28;20451;-67
2022/04/09 02:42:36;;;;;;;4.17;1.80;;;4.50;99.90;;;;;;5014896;28;20415;-67
2022/04/09 02:45:04;;;;;;;5.70;2.57;;;4.50;99.90;;;;;;5014813;28;20544;-67
2022/04/09 02:47:30;;;;;;;3.40;2.20;;;4.60;99.90;;;;;;5014641;28;20419;-67
2022/04/09 02:49:56;;;;;;;5.53;2.47;;;4.50;99.90;;;;;;5014370;28;20431;-68
2022/04/09 02:52:21;;;;;;;8.00;2.50;;;4.50;99.90;;;;;;5014758;28;20411;-67
2022/04/09 02:54:48;;;;;;;4.57;2.60;;;4.50;99.90;;;;;;5014493;28;20191;-67
2022/04/09 02:57:13;;;;;;;9.57;3.10;;;4.50;99.90;;;;;;5014481;28;20682;-66
2022/04/09 02:59:39;;;;;;;11.63;2.43;;;4.40;99.90;;;;;;5014141;28;20439;-67
2022/04/09 03:02:05;;;;;;;5.27;2.57;;;4.50;99.90;;;;;;5014581;28;20219;-66
2022/04/09 03:04:31;;;;;;;3.40;2.30;;;4.60;99.90;;;;;;5014554;28;20173;-67
2022/04/09 03:06:56;;;;;;;9.63;2.40;;;4.60;99.90;;;;;;5014019;28;20529;-67
2022/04/09 03:09:22;;;;;;;9.70;2.93;;;4.70;99.90;;;;;;5014115;28;20205;-68
2022/04/09 03:11:48;;;;;;;5.50;2.10;;;4.70;99.90;;;;;;5014248;28;20671;-67
2022/04/09 03:14:13;;;;;;;7.43;2.43;;;4.70;99.90;;;;;;5014310;28;20608;-67
2022/04/09 03:16:39;;;;;;;5.57;2.47;;;4.70;99.90;;;;;;5013965;28;20661;-67
2022/04/09 03:19:05;;;;;;;6.37;3.17;;;4.70;99.90;;;;;;5014109;28;20318;-68
2022/04/09 03:21:31;;;;;;;5.90;2.20;;;4.70;99.90;;;;;;5013980;28;20299;-67
2022/04/09 03:23:56;;;;;;;4.13;2.33;;;4.70;99.90;;;;;;5014311;28;20176;-69
2022/04/09 03:26:22;;;;;;;5.57;2.37;;;4.80;99.90;;;;;;5013728;28;20180;-67
2022/04/09 03:28:48;;;;;;;5.33;2.43;;;4.80;99.90;;;;;;5013746;28;20203;-67
2022/04/09 03:31:14;;;;;;;4.67;2.40;;;4.80;99.90;;;;;;5014019;28;20184;-67
2022/04/09 03:33:39;;;;;;;5.20;2.33;;;4.80;99.90;;;;;;5014155;28;20597;-67
2022/04/09 03:36:06;;;;;;;5.90;2.40;;;4.80;99.90;;;;;;5013370;28;20180;-67
2022/04/09 03:38:33;;;;;;;6.77;2.57;;;4.90;99.90;;;;;;5013433;28;20974;-67
2022/04/09 03:40:58;;;;;;;8.07;2.77;;;4.90;99.90;;;;;;5014065;28;20464;-67
2022/04/09 03:43:26;;;;;;;8.40;4.03;;;5.00;99.90;;;;;;5013843;28;20795;-67
2022/04/09 03:45:54;;;;;;;4.57;2.40;;;4.90;99.90;;;;;;5013833;28;20609;-67
2022/04/09 03:48:20;;;;;;;5.23;2.20;;;5.00;99.90;;;;;;5013458;28;20487;-67
2022/04/09 03:50:46;;;;;;;6.10;2.50;;;5.00;99.90;;;;;;5013823;28;20451;-67
2022/04/09 03:53:11;;;;;;;5.27;2.60;;;4.90;99.90;;;;;;5013578;28;20230;-68
2022/04/09 03:55:40;;;;;;;6.17;3.53;;;5.00;99.90;;;;;;5013844;28;20561;-66
2022/04/09 03:58:06;;;;;;;5.20;3.00;;;5.00;99.90;;;;;;5013340;28;20188;-67
2022/04/09 04:00:32;;;;;;;4.20;2.10;;;5.00;99.90;;;;;;5013713;28;20472;-67
2022/04/09 04:02:57;;;;;;;6.10;2.50;;;5.10;99.90;;;;;;5013936;28;20267;-66
2022/04/09 04:05:23;;;;;;;6.77;3.27;;;5.00;99.90;;;;;;5013731;28;20831;-67
2022/04/09 04:07:49;;;;;;;4.00;2.30;;;5.00;99.90;;;;;;5013826;28;20267;-67
2022/04/09 04:10:15;;;;;;;9.70;2.50;;;5.00;99.90;;;;;;5013866;28;20204;-66
2022/04/09 04:12:41;;;;;;;5.53;2.47;;;5.00;99.90;;;;;;5009195;28;20640;-66
2022/04/09 04:15:08;;;;;;;8.40;2.67;;;5.00;99.90;;;;;;5010190;28;20186;-66
2022/04/09 04:17:42;;;;;;;8.70;3.70;;;5.00;99.90;;;;;;5013291;28;20525;-67
2022/04/09 04:20:11;;;;;;;5.30;1.80;;;5.00;99.90;;;;;;5013584;28;20447;-66
2022/04/09 04:22:37;;;;;;;6.33;2.47;;;5.00;99.90;;;;;;5013636;28;20414;-67
2022/04/09 04:25:04;;;;;;;5.13;3.10;;;5.00;99.90;;;;;;5013659;28;20499;-66
2022/04/09 04:27:30;;;;;;;9.40;3.50;;;5.10;99.90;;;;;;5013203;28;20415;-67
2022/04/09 04:30:04;;;;;;;6.60;2.50;;;5.10;99.90;;;;;;5013493;28;20466;-67
2022/04/09 04:32:29;;;;;;;6.03;2.80;;;5.00;99.90;;;;;;5013374;28;20510;-66
2022/04/09 04:34:55;;;;;;;3.93;1.93;;;5.10;99.90;;;;;;5013702;28;20502;-67
2022/04/09 04:37:21;;;;;;;9.50;3.00;;;4.90;99.90;;;;;;5013266;28;20226;-67
2022/04/09 04:39:47;;;;;;;4.27;2.03;;;4.80;99.90;;;;;;5013309;28;20222;-67
2022/04/09 04:42:13;;;;;;;10.37;3.03;;;4.90;99.90;;;;;;5016093;28;21177;-66
2022/04/09 04:44:38;;;;;;;4.40;2.50;;;4.70;99.90;;;;;;5016699;28;20827;-66
2022/04/09 04:47:04;;;;;;;16.53;2.63;;;4.80;99.90;;;;;;5016883;28;20180;-66
2022/04/09 04:49:30;;;;;;;12.27;2.80;;;4.80;99.90;;;;;;5016828;28;20573;-67
2022/04/09 04:51:56;;;;;;;8.93;2.50;;;4.80;99.90;;;;;;5035169;28;20531;-66
2022/04/09 04:54:22;;;;;;;8.17;1.90;;;4.90;99.90;;;;;;5016641;28;20430;-66
2022/04/09 04:56:48;;;;;;;5.57;2.40;;;4.80;99.90;;;;;;5016767;28;20211;-67
2022/04/09 04:59:15;;;;;;;4.23;2.33;;;4.80;99.90;;;;;;5016233;28;21040;-67
2022/04/09 05:01:43;;;;;;;4.27;1.77;;;4.80;99.90;;;;;;5016742;28;20225;-66
2022/04/09 05:04:10;;;;;;;10.03;2.67;;;4.70;99.90;;;;;;5017085;28;20787;-67
2022/04/09 05:06:35;;;;;;;4.80;2.33;;;4.70;99.90;;;;;;5016525;28;20423;-67
2022/04/09 05:09:01;;;;;;;4.07;2.10;;;4.70;99.90;;;;;;5016469;28;20872;-67
2022/04/09 05:11:27;;;;;;;8.83;2.40;;;4.70;99.90;;;;;;5016540;28;20192;-67
2022/04/09 05:13:53;;;;;;;9.43;2.03;;;4.70;99.90;;;;;;5007652;28;20292;-67
2022/04/09 05:16:18;;;;;;;4.80;2.30;;;4.60;99.90;;;;;;5016202;28;20187;-66
2022/04/09 05:18:44;;;;;;;8.83;3.07;;;4.50;99.90;;;;;;5032773;28;20706;-66
2022/04/09 05:21:10;;;;;;;5.60;2.40;;;4.50;99.90;;;;;;5032374;28;20290;-66
2022/04/09 05:23:36;;;;;;;10.13;2.70;;;4.60;99.90;;;;;;4996709;28;20530;-67
2022/04/09 05:26:02;;;;;;;10.40;2.80;;;4.60;99.90;;;;;;5013060;28;20788;-67
2022/04/09 05:28:28;;;;;;;5.30;2.50;;;4.70;99.90;;;;;;5013019;28;20624;-67
2022/04/09 05:30:53;;;;;;;6.30;2.53;;;4.70;99.90;;;;;;5012938;28;20193;-67
2022/04/09 05:33:20;;;;;;;7.57;2.57;;;4.70;99.90;;;;;;5012903;28;20184;-67
2022/04/09 05:35:45;;;;;;;4.80;2.33;;;4.70;99.90;;;;;;5012766;28;20185;-67
2022/04/09 05:38:11;;;;;;;5.80;2.57;;;4.80;99.90;;;;;;5011496;28;20976;-66
2022/04/09 05:40:38;;;;;;;8.50;2.80;;;4.80;99.90;;;;;;5012693;28;20679;-67
2022/04/09 05:43:04;;;;;;;5.60;2.10;;;4.90;99.90;;;;;;4996334;28;20185;-67
2022/04/09 05:45:30;;;;;;;6.77;3.57;;;5.00;99.90;;;;;;5012799;28;20419;-67
2022/04/09 05:47:55;;;;;;;18.57;9.87;;;5.10;99.90;;;;;;5012401;28;20961;-67
2022/04/09 05:50:21;;;;;;;66.93;34.10;;;5.10;99.90;;;;;;5012460;28;20305;-67
2022/04/09 05:52:49;;;;;;;21.80;13.60;;;5.10;99.90;;;;;;5011274;28;20193;-67
2022/04/09 05:55:17;;;;;;;8.60;4.93;;;5.00;99.90;;;;;;5012555;28;20441;-67
2022/04/09 05:57:43;;;;;;;6.70;3.57;;;5.00;99.90;;;;;;5012129;28;20454;-67
2022/04/09 06:00:10;;;;;;;10.10;3.27;;;5.10;99.90;;;;;;5012274;28;20445;-66
2022/04/09 06:02:39;;;;;;;7.47;5.50;;;5.00;99.90;;;;;;5012444;28;20511;-66
2022/04/09 06:05:06;;;;;;;5.40;2.83;;;5.00;99.90;;;;;;5012077;28;20504;-66
2022/04/09 06:07:32;;;;;;;9.07;5.00;;;5.10;99.90;;;;;;5011286;28;20425;-67
2022/04/09 06:09:59;;;;;;;7.80;3.03;;;5.10;99.90;;;;;;5012158;28;20472;-66
2022/04/09 06:12:25;;;;;;;13.13;2.90;;;5.20;99.90;;;;;;5012234;28;20775;-66
2022/04/09 06:14:50;;;;;;;9.13;3.30;;;5.30;99.90;;;;;;5012131;28;20472;-67
2022/04/09 06:17:16;;;;;;;5.60;2.90;;;5.40;99.90;;;;;;5012019;28;20959;-67
2022/04/09 06:19:43;;;;;;;11.93;4.73;;;5.40;99.90;;;;;;5011808;28;20259;-67
2022/04/09 06:22:09;;;;;;;9.33;3.33;;;5.40;99.90;;;;;;5012054;28;20213;-66
2022/04/09 06:24:35;;;;;;;5.23;3.43;;;5.50;99.90;;;;;;5012089;28;20833;-66
2022/04/09 06:27:00;;;;;;;6.63;3.07;;;5.60;99.90;;;;;;5011730;28;20173;-66
2022/04/09 06:29:26;;;;;;;6.07;2.97;;;5.60;99.90;;;;;;5011879;28;20250;-67
2022/04/09 06:31:52;;;;;;;9.50;3.93;;;5.70;99.90;;;;;;5011896;28;20662;-67
2022/04/09 06:34:18;;;;;;;8.93;3.47;;;5.60;99.90;;;;;;5011811;28;20662;-67
2022/04/09 06:36:44;;;;;;;6.73;3.70;;;5.60;99.90;;;;;;5011511;28;20605;-67
2022/04/09 06:39:10;;;;;;;6.17;2.40;;;5.60;99.90;;;;;;5011690;28;20445;-66
2022/04/09 06:41:36;;;;;;;6.37;2.60;;;5.70;99.90;;;;;;5011561;28;20467;-67
2022/04/09 06:44:03;;;;;;;7.03;2.80;;;5.80;99.90;;;;;;5012039;28;20720;-66
2022/04/09 06:46:29;;;;;;;6.80;3.00;;;6.00;99.90;;;;;;5011229;28;20415;-67
2022/04/09 06:48:54;;;;;;;6.27;2.87;;;6.00;99.90;;;;;;5011368;28;20494;-68
2022/04/09 06:51:22;;;;;;;7.33;3.40;;;6.10;99.90;;;;;;5011406;28;20624;-67
2022/04/09 06:53:48;;;;;;;15.57;4.00;;;6.20;99.90;;;;;;5011182;28;20184;-68
2022/04/09 06:56:14;;;;;;;11.63;3.57;;;6.50;99.90;;;;;;5011320;28;20434;-67
2022/04/09 06:58:40;;;;;;;10.17;4.37;;;6.50;99.90;;;;;;5010967;28;20231;-67
2022/04/09 07:01:06;;;;;;;10.93;4.63;;;6.50;99.90;;;;;;5011310;28;21023;-67
2022/04/09 07:03:32;;;;;;;4.33;2.20;;;6.60;99.90;;;;;;5010750;28;20218;-67
2022/04/09 07:05:58;;;;;;;6.27;3.70;;;6.70;99.90;;;;;;5011737;28;20180;-67
2022/04/09 07:08:24;;;;;;;7.50;2.90;;;6.70;99.90;;;;;;5010765;28;20886;-68
2022/04/09 07:10:50;;;;;;;6.17;3.27;;;6.70;99.90;;;;;;5011099;28;20246;-67
2022/04/09 07:13:16;;;;;;;4.30;2.57;;;6.90;99.90;;;;;;5011022;28;20927;-67
2022/04/09 07:15:43;;;;;;;5.43;2.63;;;7.10;99.90;;;;;;5010954;28;20659;-68
2022/04/09 07:18:09;;;;;;;8.30;2.63;;;7.40;99.90;;;;;;5010599;28;20439;-67
2022/04/09 07:20:36;;;;;;;8.17;3.63;;;7.40;99.90;;;;;;5010698;28;20467;-67
2022/04/09 07:23:05;;;;;;;6.83;2.43;;;7.50;99.90;;;;;;5011139;28;20216;-68
2022/04/09 07:25:31;;;;;;;5.57;2.20;;;7.70;99.90;;;;;;5010766;28;20767;-67
2022/04/09 07:27:57;;;;;;;5.70;2.70;;;7.70;99.90;;;;;;5010684;28;20404;-67
2022/04/09 07:30:24;;;;;;;4.93;2.97;;;7.80;99.90;;;;;;5010937;28;20428;-68
2022/04/09 07:32:50;;;;;;;4.90;2.50;;;7.70;99.90;;;;;;5010608;28;21002;-68
2022/04/09 07:35:16;;;;;;;4.23;2.10;;;7.50;99.90;;;;;;5010922;28;20527;-68
2022/04/09 07:37:44;;;;;;;6.07;2.40;;;7.50;99.90;;;;;;5010563;28;20415;-68
2022/04/09 07:40:11;;;;;;;6.53;1.97;;;7.70;99.90;;;;;;5010801;28;20451;-68
2022/04/09 07:42:41;;;;;;;6.90;2.47;;;8.10;99.90;;;;;;5010760;28;20475;-68
2022/04/09 07:45:07;;;;;;;5.30;2.30;;;8.30;99.90;;;;;;5010664;28;20408;-68
2022/04/09 07:47:34;;;;;;;8.80;3.30;;;8.30;99.90;;;;;;5009838;28;20460;-67
2022/04/09 07:50:00;;;;;;;9.50;2.40;;;8.40;99.90;;;;;;5010613;28;20436;-68
2022/04/09 07:52:27;;;;;;;8.27;2.50;;;8.60;99.90;;;;;;5010878;28;20773;-68
2022/04/09 07:54:57;;;;;;;6.27;2.30;;;8.60;99.90;;;;;;5010689;28;20440;-67
2022/04/09 07:57:24;;;;;;;5.37;2.47;;;8.60;99.90;;;;;;5010458;28;20419;-68
2022/04/09 07:59:49;;;;;;;9.60;2.47;;;8.70;99.90;;;;;;5033578;23;20966;-85
2022/04/09 08:02:15;;;;;;;16.80;3.10;;;8.80;99.90;;;;;;5033959;28;20487;-86
2022/04/09 08:04:40;;;;;;;4.20;2.33;;;9.00;99.90;;;;;;5033899;28;20180;-86
2022/04/09 08:07:06;;;;;;;5.70;2.03;;;9.10;99.90;;;;;;5033668;28;20217;-85
2022/04/09 08:09:32;;;;;;;5.50;1.77;;;9.20;99.90;;;;;;5034013;28;20184;-85
2022/04/09 08:11:57;;;;;;;5.50;2.70;;;9.30;99.90;;;;;;5033855;28;20196;-86
2022/04/09 08:14:25;;;;;;;5.00;2.57;;;9.60;99.90;;;;;;5033991;28;20618;-85
2022/04/09 08:16:51;;;;;;;7.33;2.60;;;9.70;99.90;;;;;;5036590;28;20183;-86
2022/04/09 08:19:18;;;;;;;3.57;2.60;;;10.10;99.90;;;;;;5037758;28;20953;-86
2022/04/09 08:21:44;;;;;;;6.20;2.80;;;10.30;99.90;;;;;;5032104;28;20478;-86
2022/04/09 08:24:11;;;;;;;5.80;2.63;;;10.40;99.90;;;;;;5018019;28;20419;-86
2022/04/09 08:26:36;;;;;;;8.13;2.57;;;10.40;99.90;;;;;;5017607;28;20447;-84
2022/04/09 08:29:03;;;;;;;7.60;2.60;;;10.40;99.90;;;;;;5017744;28;20485;-85
2022/04/09 08:31:28;;;;;;;8.70;2.67;;;10.30;99.90;;;;;;5028080;28;20200;-86
2022/04/09 08:33:54;;;;;;;6.73;2.23;;;10.10;99.90;;;;;;5037610;28;20421;-85
2022/04/09 08:36:20;;;;;;;6.00;2.77;;;10.20;99.90;;;;;;5037300;28;20221;-88
2022/04/09 08:38:46;;;;;;;6.53;2.43;;;10.20;99.90;;;;;;5037604;28;20652;-85
2022/04/09 08:41:14;;;;;;;6.23;1.67;;;10.20;99.90;;;;;;5037339;28;20215;-86
2022/04/09 08:43:40;;;;;;;9.23;2.80;;;10.20;99.90;;;;;;5037413;28;20235;-86
2022/04/09 08:46:06;;;;;;;6.73;2.10;;;10.20;99.90;;;;;;5027475;28;20426;-86
2022/04/09 08:48:33;;;;;;;9.20;2.40;;;10.20;99.90;;;;;;5017236;28;20415;-86
2022/04/09 08:50:59;;;;;;;3.70;2.10;;;10.10;99.90;;;;;;5017242;28;20447;-85
2022/04/09 08:53:25;;;;;;;2.97;1.83;;;9.80;99.90;;;;;;5017329;28;20469;-85
2022/04/09 08:55:51;;;;;;;7.00;2.30;;;10.00;99.90;;;;;;5016978;28;20473;-85
2022/04/09 08:58:17;;;;;;;4.90;2.43;;;10.30;99.90;;;;;;5016866;28;20735;-85
2022/04/09 09:00:45;;;;;;;4.23;1.93;;;11.10;99.90;;;;;;5016847;28;20306;-85
2022/04/09 09:03:14;;;;;;;5.60;1.97;;;12.10;99.90;;;;;;5017289;28;20801;-86
2022/04/09 09:05:52;;;;;;;4.77;2.63;;;13.20;99.90;;;;;;5017153;28;20426;-85
2022/04/09 09:08:38;;;;;;;4.00;2.03;;;13.90;99.90;;;;;;5016873;28;20407;-86
2022/04/09 09:11:04;;;;;;;5.07;1.97;;;14.10;99.90;;;;;;5017048;28;20442;-86
2022/04/09 09:13:44;;;;;;;8.03;2.50;;;14.60;99.90;;;;;;5016980;28;20426;-87
2022/04/09 09:16:13;;;;;;;5.43;1.93;;;15.50;99.90;;;;;;5017023;28;20234;-86
2022/04/09 09:18:39;;;;;;;7.77;1.80;;;15.80;99.90;;;;;;5016667;28;20791;-87
2022/04/09 09:21:05;;;;;;;4.20;2.10;;;17.50;99.90;;;;;;5016753;28;20463;-86
2022/04/09 09:23:33;;;;;;;9.83;2.40;;;16.70;94.00;;;;;;5016963;28;20214;-86
2022/04/09 09:26:00;;;;;;;3.80;1.63;;;14.80;97.00;;;;;;5016895;28;20211;-87
2022/04/09 09:28:30;;;;;;;7.30;2.50;;;13.60;99.90;;;;;;5016436;28;20423;-86
2022/04/09 09:30:57;;;;;;;4.80;2.23;;;12.80;99.90;;;;;;5016505;28;20518;-86
2022/04/09 09:33:24;;;;;;;6.37;2.90;;;12.10;99.90;;;;;;5016855;28;20430;-86
2022/04/09 09:35:56;;;;;;;5.87;1.70;;;12.10;99.90;;;;;;5016514;28;20457;-86
2022/04/09 09:38:29;;;;;;;5.00;2.27;;;11.80;99.90;;;;;;5016148;28;20447;-86
2022/04/09 09:40:56;;;;;;;9.10;1.83;;;11.50;99.90;;;;;;5031204;28;20466;-86
2022/04/09 09:43:23;;;;;;;6.80;2.30;;;11.50;99.90;;;;;;5029790;28;20424;-86
2022/04/09 09:45:50;;;;;;;5.07;2.10;;;11.90;99.90;;;;;;5016446;28;20419;-86
2022/04/09 09:48:25;;;;;;;4.77;1.87;;;11.80;99.90;;;;;;5030415;28;20422;-86
2022/04/09 09:50:54;;;;;;;4.70;2.20;;;11.50;99.90;;;;;;5035976;28;20476;-86
2022/04/09 09:53:33;;;;;;;5.17;2.00;;;11.90;99.90;;;;;;5036203;28;20450;-86
2022/04/09 09:56:00;;;;;;;6.17;1.77;;;14.60;99.90;;;;;;5035992;28;20442;-85
2022/04/09 09:58:28;;;;;;;4.43;1.83;;;16.50;95.90;;;;;;5035558;28;20762;-85
2022/04/09 10:00:56;;;;;;;5.47;1.83;;;16.60;89.70;;;;;;5035634;28;20476;-86
2022/04/09 10:03:21;;;;;;;5.40;2.03;;;15.50;92.90;;;;;;5036072;28;20422;-85
2022/04/09 10:05:49;;;;;;;4.23;1.83;;;14.80;93.90;;;;;;5023486;28;20526;-85
2022/04/09 10:08:15;;;;;;;4.03;2.20;;;14.00;94.60;;;;;;5022561;28;20262;-85
2022/04/09 10:10:43;;;;;;;4.23;2.07;;;13.50;97.90;;;;;;5035303;28;20427;-85
2022/04/09 10:13:10;;;;;;;5.13;2.27;;;13.40;99.90;;;;;;5035384;28;21017;-85
2022/04/09 10:15:39;;;;;;;6.57;2.80;;;15.60;95.00;;;;;;5035452;28;20469;-85
2022/04/09 10:18:07;;;;;;;5.63;2.10;;;15.70;84.90;;;;;;5034738;28;20448;-86
2022/04/09 10:20:33;;;;;;;4.17;1.90;;;17.30;87.80;;;;;;5035233;28;20894;-86
2022/04/09 10:23:00;;;;;;;4.73;2.07;;;17.30;72.30;;;;;;5035276;28;20437;-86
2022/04/09 10:25:28;;;;;;;5.30;2.00;;;16.00;78.40;;;;;;5034978;28;20414;-85
2022/04/09 10:28:00;;;;;;;7.13;2.13;;;14.40;78.40;;;;;;5032445;28;20434;-85
2022/04/09 10:30:28;;;;;;;3.43;1.77;;;14.60;89.50;;;;;;5032897;28;20418;-85
2022/04/09 10:32:55;;;;;;;4.60;1.80;;;16.30;79.60;;;;;;5035062;28;20450;-85
2022/04/09 10:35:25;;;;;;;5.13;2.23;;;18.20;73.10;;;;;;5031425;28;20442;-86
2022/04/09 10:38:15;;;;;;;4.70;2.33;;;19.40;64.60;;;;;;5034315;28;20432;-86
2022/04/09 10:40:44;;;;;;;2.90;1.70;;;20.30;58.30;;;;;;5032656;28;20473;-83
2022/04/09 10:43:22;;;;;;;4.30;2.00;;;21.00;56.50;;;;;;5041161;28;20511;-86
2022/04/09 10:46:11;;;;;;;3.70;2.10;;;21.10;49.50;;;;;;5023356;28;20513;-85
2022/04/09 10:48:42;;;;;;;6.53;2.87;;;19.10;48.50;;;;;;5031218;28;20451;-86
2022/04/09 10:51:14;;;;;;;4.57;2.33;;;16.80;54.10;;;;;;5014850;28;20549;-85
2022/04/09 10:53:50;;;;;;;3.57;1.90;;;15.10;61.70;;;;;;5014870;28;20514;-85
2022/04/09 10:56:32;;;;;;;10.93;2.50;;;14.00;70.60;;;;;;5015038;28;20915;-85
2022/04/09 10:59:01;;;;;;;7.30;3.03;;;14.00;76.60;;;;;;5016664;28;20908;-85
2022/04/09 11:01:51;;;;;;;4.90;2.60;;;15.50;73.70;;;;;;5014959;28;20475;-85
2022/04/09 11:04:43;;;;;;;3.37;2.27;;;16.40;64.90;;;;;;5015401;28;20408;-86
2022/04/09 11:07:23;;;;;;;4.17;2.57;;;18.60;58.70;;;;;;5030586;28;20468;-84
2022/04/09 11:10:03;;;;;;;4.50;2.20;;;17.10;56.00;;;;;;5034466;28;20409;-84
2022/04/09 11:12:38;;;;;;;3.50;2.30;;;15.90;59.40;;;;;;5034537;28;20988;-85
2022/04/09 11:15:09;;;;;;;4.83;2.30;;;16.00;58.80;;;;;;5034559;28;20950;-84
2022/04/09 11:17:35;;;;;;;4.63;2.60;;;16.80;62.20;;;;;;5034152;28;20420;-84
2022/04/09 11:20:03;;;;;;;6.40;2.83;;;16.90;57.60;;;;;;5034107;28;20476;-84
2022/04/09 11:22:36;;;;;;;3.40;1.80;;;16.30;60.10;;;;;;5034264;28;20466;-84
2022/04/09 11:25:03;;;;;;;5.63;1.90;;;16.10;69.50;;;;;;5034000;28;20428;-84
2022/04/09 11:27:29;;;;;;;6.40;1.80;;;16.10;77.50;;;;;;5033927;28;20421;-85
2022/04/09 11:29:56;;;;;;;2.80;1.67;;;17.10;74.80;;;;;;5033831;28;20453;-84
2022/04/09 11:32:23;;;;;;;2.70;1.40;;;17.00;71.40;;;;;;5033842;28;20526;-84
2022/04/09 11:34:50;;;;;;;2.87;1.70;;;16.10;71.50;;;;;;5033997;28;20472;-84
2022/04/09 11:37:16;;;;;;;3.43;1.60;;;14.60;79.90;;;;;;5033548;28;20426;-84
2022/04/09 11:39:47;;;;;;;2.60;1.67;;;14.50;94.40;;;;;;5034063;28;20509;-85
2022/04/09 11:42:13;;;;;;;4.17;2.23;;;16.90;95.60;;;;;;5033364;28;20470;-84
2022/04/09 11:44:39;;;;;;;3.63;1.80;;;18.40;82.00;;;;;;5034077;28;20422;-83
2022/04/09 11:47:13;;;;;;;2.80;1.80;;;19.30;74.10;;;;;;5017961;28;20434;-85
2022/04/09 11:49:40;;;;;;;5.03;1.97;;;20.30;70.10;;;;;;5013108;28;20417;-84
2022/04/09 11:52:06;;;;;;;5.27;1.93;;;21.00;62.10;;;;;;5027243;28;20457;-83
2022/04/09 11:54:33;;;;;;;3.13;1.40;;;21.90;59.20;;;;;;5035734;28;20437;-83
2022/04/09 11:57:01;;;;;;;4.73;1.53;;;23.30;56.00;;;;;;5034378;28;20480;-85
2022/04/09 11:59:30;;;;;;;3.03;1.70;;;24.00;46.90;;;;;;5030545;28;20501;-87
2022/04/09 12:01:57;;;;;;;3.47;2.00;;;23.70;46.40;;;;;;5044386;28;21017;-86
2022/04/09 12:04:31;;;;;;;3.33;1.70;;;23.20;40.30;;;;;;5052850;28;20422;-86
2022/04/09 12:06:57;;;;;;;4.07;1.60;;;21.90;40.00;;;;;;5053714;28;20429;-85
2022/04/09 12:09:24;;;;;;;4.20;2.23;;;19.80;40.50;;;;;;5042205;28;20831;-86
2022/04/09 12:11:53;;;;;;;2.73;1.50;;;19.10;43.20;;;;;;5032472;28;20218;-87
2022/04/09 12:14:20;;;;;;;4.50;2.10;;;19.50;44.00;;;;;;5027382;28;21024;-86
2022/04/09 12:16:46;;;;;;;3.83;2.00;;;19.10;44.20;;;;;;5033642;28;20468;-85
2022/04/09 12:19:12;;;;;;;3.93;2.50;;;17.90;46.60;;;;;;5031802;28;20457;-87
2022/04/09 12:21:38;;;;;;;3.40;2.10;;;17.10;49.50;;;;;;5050259;28;20929;-86
2022/04/09 12:24:09;;;;;;;2.90;1.83;;;15.90;53.50;;;;;;5051131;28;20183;-87
2022/04/09 12:26:37;;;;;;;4.33;2.13;;;15.10;60.50;;;;;;5055619;28;20405;-86
2022/04/09 12:29:16;;;;;;;9.57;3.20;;;13.20;94.00;;;;;;5057713;28;20413;-86
2022/04/09 12:31:46;;;;;;;3.80;2.20;;;11.90;99.90;;;;;;5052621;28;20468;-84
2022/04/09 12:34:11;;;;;;;4.20;2.30;;;11.20;99.90;;;;;;5053644;28;20417;-85
2022/04/09 12:36:57;;;;;;;3.87;2.20;;;11.20;99.90;;;;;;5053332;28;20787;-85
2022/04/09 12:39:24;;;;;;;4.13;2.27;;;12.60;99.90;;;;;;5059933;28;20430;-85
2022/04/09 12:41:50;;;;;;;4.40;2.80;;;14.70;99.90;;;;;;5047447;28;20445;-85
2022/04/09 12:44:32;;;;;;;4.70;2.67;;;14.50;99.90;;;;;;5046445;28;20420;-84
2022/04/09 12:46:59;;;;;;;3.00;2.20;;;16.10;99.90;;;;;;5054096;28;20504;-86
2022/04/09 12:49:26;;;;;;;3.83;2.20;;;17.80;97.90;;;;;;5055846;28;20429;-86
2022/04/09 12:51:52;;;;;;;5.67;2.00;;;19.20;92.80;;;;;;5054857;28;20555;-86
2022/04/09 12:54:18;;;;;;;4.40;2.40;;;19.80;81.40;;;;;;5055790;28;20479;-85